ADDS METAR Data INFO
IDs: Format: Raw Decoded Include TAF

Data at: 2256 UTC 22 Jun 2018

KMWM 222235Z AUTO 00000KT 10SM CLR 24/21 A2984 RMK AO2
KMWM 222215Z AUTO 04003KT 10SM CLR 24/21 A2984 RMK AO2
KMWM 222155Z AUTO 10004KT 10SM CLR 24/21 A2985 RMK AO2
KMWM 222135Z AUTO 00000KT 10SM CLR 24/21 A2985 RMK AO2
KMWM 222115Z AUTO 00000KT 10SM SCT034 24/21 A2985 RMK AO2
KMWM 222055Z AUTO 16003KT 10SM SCT034 24/21 A2986 RMK AO2
KMWM 222035Z AUTO 15003KT 10SM CLR 24/21 A2987 RMK AO2
KMWM 222015Z AUTO 00000KT 10SM CLR 24/21 A2987 RMK AO2
KMWM 221955Z AUTO 00000KT 10SM CLR 24/20 A2988 RMK AO2
KMWM 221935Z AUTO 00000KT 10SM CLR 24/21 A2988 RMK AO2
KMWM 221916Z AUTO 00000KT 10SM CLR 23/21 A2989 RMK AO2
KMWM 221855Z AUTO 00000KT 10SM CLR 24/21 A2990 RMK AO2
KMWM 221835Z AUTO 11004KT 10SM CLR 23/21 A2989 RMK AO2
KMWM 221815Z AUTO 00000KT 10SM CLR 23/20 A2990 RMK AO2
KMWM 221755Z AUTO 00000KT 10SM CLR 23/20 A2990 RMK AO2
KMWM 221735Z AUTO 00000KT 10SM CLR 22/20 A2990 RMK AO2
KMWM 221715Z AUTO 00000KT 10SM CLR 22/20 A2991 RMK AO2
KMWM 221655Z AUTO 00000KT 10SM CLR 22/20 A2991 RMK AO2
KMWM 221635Z AUTO 05004KT 10SM CLR 22/20 A2990 RMK AO2
KMWM 221615Z AUTO 32004KT 10SM CLR 22/19 A2991 RMK AO2
KMWM 221555Z AUTO 34003KT 10SM CLR 22/19 A2991 RMK AO2
KMWM 221535Z AUTO 36003KT 10SM CLR 21/19 A2991 RMK AO2
KMWM 221515Z AUTO 00000KT 10SM CLR 20/18 A2991 RMK AO2
KMWM 221455Z AUTO 01004KT 10SM CLR 19/18 A2991 RMK AO2
KMWM 221435Z AUTO 36003KT 10SM CLR 19/17 A2992 RMK AO2
KMWM 221415Z AUTO 34003KT 10SM CLR 19/17 A2992 RMK AO2
KMWM 221355Z AUTO 28004KT 10SM CLR 19/17 A2993 RMK AO2
KMWM 221335Z AUTO 28004KT 10SM CLR 18/17 A2992 RMK AO2
KMWM 221315Z AUTO 26005KT 10SM CLR 18/16 A2993 RMK AO2
KMWM 221255Z AUTO 25004KT 10SM CLR 18/16 A2993 RMK AO2
KMWM 221235Z AUTO 24004KT 10SM CLR 18/16 A2993 RMK AO2
KMWM 221215Z AUTO 25004KT 10SM CLR 17/16 A2993 RMK AO2
KMWM 221155Z AUTO 24003KT 10SM CLR 16/15 A2993 RMK AO2
KMWM 221135Z AUTO 24003KT 10SM CLR 16/14 A2994 RMK AO2
KMWM 221115Z AUTO 25003KT 10SM CLR 15/14 A2993 RMK AO2
KMWM 221055Z AUTO 25004KT 10SM CLR 15/14 A2993 RMK AO2
KMWM 221035Z AUTO 00000KT 10SM CLR 15/14 A2992 RMK AO2
KMWM 221015Z AUTO 25003KT 10SM SCT036 16/14 A2993 RMK AO2
KMWM 220955Z AUTO 23003KT 10SM BKN036 OVC042 16/15 A2994 RMK AO2
KMWM 220935Z AUTO 26004KT 10SM BKN043 BKN060 OVC110 16/15 A2994 RMK AO2
KMWM 220915Z AUTO 26004KT 10SM SCT045 OVC060 16/15 A2994 RMK AO2
KMWM 220855Z AUTO 25003KT 10SM BKN060 BKN080 120 16/15 A2994 RMK AO2
KMWM 220835Z AUTO 28004KT 10SM OVC070 16/15 A2994 RMK AO2
KMWM 220815Z AUTO 00000KT 10SM OVC070 16/16 A2993 RMK AO2
KMWM 220755Z AUTO 00000KT 10SM OVC080 16/16 A2992 RMK AO2
KMWM 220735Z AUTO 00000KT 10SM BKN070 OVC090 17/15 A2992 RMK AO2
KMWM 220715Z AUTO 00000KT 10SM OVC070 16/15 A2992 RMK AO2
KMWM 220655Z AUTO 00000KT 10SM OVC070 17/15 A2991 RMK AO2
KMWM 220635Z AUTO 00000KT 10SM BKN070 OVC100 17/16 A2992 RMK AO2
KMWM 220615Z AUTO 00000KT 10SM SCT070 OVC100 17/15 A2992 RMK AO2
KMWM 220555Z AUTO 00000KT 10SM BKN080 OVC100 17/16 A2993 RMK AO2
KMWM 220535Z AUTO 00000KT 10SM BKN080 OVC090 17/16 A2993 RMK AO2
KMWM 220515Z AUTO 00000KT 10SM OVC090 17/16 A2994 RMK AO2
KMWM 220455Z AUTO 00000KT 10SM OVC100 17/16 A2994 RMK AO2
KMWM 220435Z AUTO 12004KT 10SM OVC100 17/16 A2994 RMK AO2
KMWM 220415Z AUTO 00000KT 10SM OVC110 17/16 A2994 RMK AO2
KMWM 220355Z AUTO 00000KT 10SM BKN120 17/16 A2994 RMK AO2
KMWM 220335Z AUTO 00000KT 10SM BKN110 17/15 A2995 RMK AO2
KMWM 220315Z AUTO 00000KT 10SM SCT120 17/16 A2995 RMK AO2
KMWM 220255Z AUTO 00000KT 10SM CLR 18/16 A2994 RMK AO2
KMWM 220235Z AUTO 00000KT 10SM SCT120 18/16 A2994 RMK AO2
KMWM 220215Z AUTO 00000KT 10SM SCT120 18/16 A2993 RMK AO2
KMWM 220155Z AUTO 00000KT 10SM BKN110 18/16 A2993 RMK AO2
KMWM 220135Z AUTO 00000KT 10SM SCT110 18/16 A2993 RMK AO2
KMWM 220115Z AUTO 09003KT 10SM CLR 18/16 A2992 RMK AO2
KMWM 220055Z AUTO 08005KT 10SM CLR 19/17 A2992 RMK AO2
KMWM 220035Z AUTO 09006KT 10SM SCT120 19/16 A2992 RMK AO2
KMWM 220015Z AUTO 09009KT 10SM CLR 19/17 A2991 RMK AO2
KMWM 212355Z AUTO 08010KT 10SM CLR 19/17 A2991 RMK AO2
KMWM 212335Z AUTO 07010KT 10SM CLR 20/18 A2991 RMK AO2
KMWM 212315Z AUTO 06009KT 10SM CLR 20/18 A2991 RMK AO2
KMWM 212256Z AUTO 05010KT 10SM CLR 20/18 A2991 RMK AO2
KMWM 212235Z AUTO 07011KT 10SM CLR 21/18 A2991 RMK AO2
KMWM 212215Z AUTO 05014G17KT 10SM CLR 21/18 A2991 RMK AO2
KMWM 212155Z AUTO 06012G19KT 10SM CLR 21/18 A2991 RMK AO2
KMWM 212135Z AUTO 05014G19KT 10SM CLR 21/18 A2991 RMK AO2
KMWM 212115Z AUTO 06016G20KT 10SM CLR 20/18 A2991 RMK AO2
KMWM 212055Z AUTO 06017G21KT 10SM SCT026 20/18 A2991 RMK AO2
KMWM 212035Z AUTO 05014G20KT 10SM SCT024 SCT033 20/18 A2990 RMK AO2
KMWM 212015Z AUTO 05015G19KT 10SM SCT022 SCT026 20/18 A2990 RMK AO2
KMWM 211955Z AUTO 04014G20KT 10SM SCT022 20/18 A2990 RMK AO2
KMWM 211935Z AUTO 04012G19KT 10SM BKN022 19/17 A2990 RMK AO2
KMWM 211915Z AUTO 04012G17KT 10SM BKN022 OVC050 18/17 A2989 RMK AO2
KMWM 211855Z AUTO 03011G14KT 10SM SCT022 OVC050 18/17 A2989 RMK AO2
KMWM 211835Z AUTO 04009G16KT 10SM SCT043 OVC050 18/16 A2989 RMK AO2
KMWM 211815Z AUTO 04010KT 10SM SCT031 OVC040 17/16 A2989 RMK AO2
KMWM 211755Z AUTO 03008G16KT 10SM -DZ SCT023 BKN030 OVC035 16/16 A2989 RMK AO2
KMWM 211735Z AUTO 04012G19KT 10SM BKN023 OVC029 16/15 A2989 RMK AO2
KMWM 211715Z AUTO 03010KT 10SM -DZ OVC026 16/15 A2988 RMK AO2
KMWM 211655Z AUTO 04016G22KT 10SM -RA OVC026 16/14 A2988 RMK AO2 P0001
KMWM 211635Z AUTO 04015G21KT 10SM -RA OVC024 16/15 A2987 RMK AO2 P0001
KMWM 211615Z AUTO 04012G17KT 7SM OVC022 16/15 A2987 RMK AO2
KMWM 211555Z AUTO 04015G26KT 10SM -DZ SCT022 OVC039 16/15 A2986 RMK AO2 P0001
KMWM 211535Z AUTO 03015G20KT 10SM -RA SCT025 OVC035 15/14 A2985 RMK AO2 P0001
KMWM 211515Z AUTO 04019KT 10SM -RA BKN024 OVC031 15/14 A2984 RMK AO2 P0001
KMWM 211455Z AUTO 03018G26KT 10SM -RA OVC022 14/14 A2984 RMK AO2 P0011
KMWM 211435Z AUTO 03014G24KT 10SM RA OVC017 14/14 A2983 RMK AO2 P0008
KMWM 211415Z AUTO 03017G23KT 10SM -RA SCT009 OVC017 14/14 A2983 RMK AO2 P0004
KMWM 211355Z AUTO 03017G25KT 10SM -RA BKN009 OVC015 14/14 A2983 RMK AO2 P0003
KMWM 211335Z AUTO 03018G23KT 10SM -RA BKN011 OVC019 14/14 A2982 RMK AO2 P0002
KMWM 211315Z AUTO 02015KT 14/14 A2982 RMK AO2 PWINO P0001
KMWM 211255Z AUTO 03016G23KT 7SM -RA OVC018 15/07 A2982 RMK AO2
KMWM 211235Z AUTO 03018G24KT 7SM -RA SCT009 OVC016 15/07 A2981 RMK AO2
KMWM 211215Z AUTO 04016G23KT 3SM RA BKN009 OVC016 16/07 A2980 RMK AO2
KMWM 211155Z AUTO 03019G25KT 7SM RA BKN009 OVC013 16/07 A2979 RMK AO2
KMWM 211135Z AUTO 04017G21KT 7SM -RA BKN007 OVC011 16/08 A2979 RMK AO2
KMWM 211115Z AUTO 03014G20KT 10SM -RA OVC007 16/08 A2978 RMK AO2